AZU4719 SBFN-SBRF
Flight info
| Callsign | AZU4719 |
|---|---|
| Flight time | 0h 52m |
| Altitude | 34000 |
| Route | TOMEK DCT UBRUT |
| Aircraft | E195/M-SDE3GILORVW/S |
Departure
| Time | 2026-04-21 17:26 |
|---|---|
| Airport | Fernando de Noronha Airport (SBFN) |
Arrival
| Time | 2026-04-21 18:19 |
|---|---|
| Airport | Recife/Guararapes - Gilberto Freyre International Airport (SBRF) |
| Time | Latitude | Longitude | Altitude | Speed | Heading |
|---|---|---|---|---|---|
| 2026-04-21 17:10 | -3.85596 | -32.42823 | 169 ft | 0 kts | 184° |
| 2026-04-21 17:19 | -3.85594 | -32.42823 | 169 ft | 2 kts | 185° |
| 2026-04-21 17:19 | -3.85570 | -32.42817 | 168 ft | 4 kts | 229° |
| 2026-04-21 17:20 | -3.85560 | -32.42794 | 168 ft | 4 kts | 271° |
| 2026-04-21 17:20 | -3.85560 | -32.42789 | 168 ft | 0 kts | 274° |
| 2026-04-21 17:22 | -3.85560 | -32.42790 | 168 ft | 1 kts | 274° |
| 2026-04-21 17:23 | -3.85559 | -32.42806 | 168 ft | 5 kts | 274° |
| 2026-04-21 17:23 | -3.85558 | -32.42820 | 168 ft | 7 kts | 274° |
| 2026-04-21 17:24 | -3.85554 | -32.42881 | 168 ft | 11 kts | 274° |
| 2026-04-21 17:24 | -3.85505 | -32.42944 | 168 ft | 14 kts | 325° |
| 2026-04-21 17:24 | -3.85426 | -32.42999 | 170 ft | 14 kts | 324° |
| 2026-04-21 17:24 | -3.85400 | -32.43080 | 172 ft | 12 kts | 240° |
| 2026-04-21 17:25 | -3.85407 | -32.43127 | 172 ft | 6 kts | 334° |
| 2026-04-21 17:25 | -3.85386 | -32.43109 | 172 ft | 4 kts | 72° |
| 2026-04-21 17:25 | -3.85386 | -32.43093 | 172 ft | 0 kts | 91° |
| 2026-04-21 17:25 | -3.85389 | -32.43032 | 171 ft | 35 kts | 94° |
| 2026-04-21 17:26 | -3.85427 | -32.42551 | 167 ft | 101 kts | 94° |
| 2026-04-21 17:26 | -3.85493 | -32.41677 | 234 ft | 143 kts | 94° |
| 2026-04-21 17:26 | -3.85527 | -32.40622 | 647 ft | 159 kts | 91° |
| 2026-04-21 17:26 | -3.85581 | -32.39461 | 1144 ft | 176 kts | 103° |
| 2026-04-21 17:27 | -3.86192 | -32.38369 | 1835 ft | 189 kts | 136° |
| 2026-04-21 17:27 | -3.87305 | -32.37733 | 2838 ft | 185 kts | 160° |
| 2026-04-21 17:27 | -3.88611 | -32.37386 | 3482 ft | 203 kts | 171° |
| 2026-04-21 17:27 | -3.90089 | -32.37422 | 4076 ft | 221 kts | 187° |
| 2026-04-21 17:28 | -3.91638 | -32.37721 | 4842 ft | 231 kts | 190° |
| 2026-04-21 17:28 | -3.93232 | -32.38023 | 5680 ft | 236 kts | 188° |
| 2026-04-21 17:28 | -3.94883 | -32.38285 | 6509 ft | 250 kts | 187° |
| 2026-04-21 17:28 | -3.96684 | -32.38588 | 7098 ft | 271 kts | 189° |
| 2026-04-21 17:29 | -3.98569 | -32.38940 | 8004 ft | 279 kts | 189° |
| 2026-04-21 17:29 | -4.00492 | -32.39289 | 9041 ft | 283 kts | 189° |
| 2026-04-21 17:29 | -4.02446 | -32.39642 | 10103 ft | 287 kts | 189° |
| 2026-04-21 17:29 | -4.04480 | -32.40015 | 10815 ft | 305 kts | 189° |
| 2026-04-21 17:30 | -4.06605 | -32.40424 | 11602 ft | 316 kts | 189° |
| 2026-04-21 17:30 | -4.08790 | -32.40854 | 12510 ft | 323 kts | 189° |
| 2026-04-21 17:30 | -4.11015 | -32.41303 | 13458 ft | 329 kts | 189° |
| 2026-04-21 17:30 | -4.13282 | -32.41775 | 14330 ft | 336 kts | 190° |
| 2026-04-21 17:31 | -4.15584 | -32.42283 | 15213 ft | 343 kts | 191° |
| 2026-04-21 17:31 | -4.17937 | -32.42798 | 16096 ft | 349 kts | 190° |
| 2026-04-21 17:31 | -4.20329 | -32.43313 | 16957 ft | 355 kts | 191° |
| 2026-04-21 17:31 | -4.22725 | -32.43855 | 17752 ft | 361 kts | 191° |
| 2026-04-21 17:32 | -4.25192 | -32.44444 | 18493 ft | 367 kts | 192° |
| 2026-04-21 17:32 | -4.27688 | -32.45069 | 19173 ft | 371 kts | 193° |
| 2026-04-21 17:32 | -4.30206 | -32.45721 | 19836 ft | 376 kts | 193° |
| 2026-04-21 17:32 | -4.32751 | -32.46401 | 20490 ft | 381 kts | 193° |
| 2026-04-21 17:33 | -4.35323 | -32.47100 | 21122 ft | 385 kts | 194° |
| 2026-04-21 17:33 | -4.37920 | -32.47821 | 21748 ft | 390 kts | 194° |
| 2026-04-21 17:33 | -4.40521 | -32.48636 | 22342 ft | 396 kts | 202° |
| 2026-04-21 17:33 | -4.42807 | -32.50181 | 22904 ft | 402 kts | 225° |
| 2026-04-21 17:34 | -4.44380 | -32.52503 | 23497 ft | 406 kts | 243° |
| 2026-04-21 17:34 | -4.45594 | -32.55071 | 24003 ft | 409 kts | 245° |
| 2026-04-21 17:34 | -4.46800 | -32.57672 | 24496 ft | 413 kts | 245° |
| 2026-04-21 17:34 | -4.48022 | -32.60284 | 24975 ft | 416 kts | 245° |
| 2026-04-21 17:35 | -4.49249 | -32.62916 | 25463 ft | 418 kts | 245° |
| 2026-04-21 17:35 | -4.50477 | -32.65566 | 25914 ft | 421 kts | 245° |
| 2026-04-21 17:35 | -4.51705 | -32.68236 | 26348 ft | 424 kts | 245° |
| 2026-04-21 17:35 | -4.52937 | -32.70930 | 26794 ft | 426 kts | 245° |
| 2026-04-21 17:36 | -4.54170 | -32.73637 | 27262 ft | 428 kts | 246° |
| 2026-04-21 17:36 | -4.55405 | -32.76366 | 27665 ft | 432 kts | 246° |
| 2026-04-21 17:36 | -4.56642 | -32.79116 | 28108 ft | 433 kts | 246° |
| 2026-04-21 17:36 | -4.57879 | -32.81882 | 28523 ft | 436 kts | 246° |
| 2026-04-21 17:37 | -4.59363 | -32.84532 | 28910 ft | 439 kts | 231° |
| 2026-04-21 17:37 | -4.61638 | -32.86550 | 29385 ft | 437 kts | 211° |
| 2026-04-21 17:37 | -4.64255 | -32.88083 | 29971 ft | 434 kts | 210° |
| 2026-04-21 17:37 | -4.66866 | -32.89607 | 30377 ft | 434 kts | 210° |
| 2026-04-21 17:38 | -4.69474 | -32.91130 | 30760 ft | 434 kts | 210° |
| 2026-04-21 17:38 | -4.72049 | -32.92632 | 31104 ft | 434 kts | 210° |
| 2026-04-21 17:38 | -4.74698 | -32.94177 | 31468 ft | 435 kts | 210° |
| 2026-04-21 17:38 | -4.77276 | -32.95681 | 31837 ft | 435 kts | 210° |
| 2026-04-21 17:39 | -4.79893 | -32.97207 | 32189 ft | 435 kts | 210° |
| 2026-04-21 17:39 | -4.82517 | -32.98736 | 32513 ft | 436 kts | 210° |
| 2026-04-21 17:39 | -4.85143 | -33.00265 | 32863 ft | 436 kts | 210° |
| 2026-04-21 17:39 | -4.87769 | -33.01793 | 33212 ft | 437 kts | 209° |
| 2026-04-21 17:40 | -4.90397 | -33.03321 | 33545 ft | 437 kts | 209° |
| 2026-04-21 17:40 | -4.93025 | -33.04848 | 33886 ft | 436 kts | 209° |
| 2026-04-21 17:40 | -4.98327 | -33.07913 | 33977 ft | 442 kts | 209° |
| 2026-04-21 17:41 | -5.03664 | -33.10991 | 33968 ft | 443 kts | 209° |
| 2026-04-21 17:41 | -5.09006 | -33.14074 | 33960 ft | 443 kts | 209° |
| 2026-04-21 17:42 | -5.14348 | -33.17158 | 33900 ft | 442 kts | 209° |
| 2026-04-21 17:42 | -5.19678 | -33.20234 | 33901 ft | 442 kts | 209° |
| 2026-04-21 17:43 | -5.25009 | -33.23314 | 33901 ft | 442 kts | 209° |
| 2026-04-21 17:43 | -5.30341 | -33.26394 | 33899 ft | 442 kts | 209° |
| 2026-04-21 17:44 | -5.35674 | -33.29476 | 33901 ft | 442 kts | 209° |
| 2026-04-21 17:44 | -5.40950 | -33.32573 | 33903 ft | 442 kts | 213° |
| 2026-04-21 17:45 | -5.45824 | -33.36347 | 33913 ft | 443 kts | 218° |
| 2026-04-21 17:45 | -5.50702 | -33.40119 | 33899 ft | 442 kts | 217° |
| 2026-04-21 17:46 | -5.55591 | -33.43874 | 33901 ft | 441 kts | 217° |
| 2026-04-21 17:46 | -5.60470 | -33.47608 | 33900 ft | 441 kts | 217° |
| 2026-04-21 17:47 | -5.65354 | -33.51343 | 33901 ft | 441 kts | 217° |
| 2026-04-21 17:47 | -5.70240 | -33.55077 | 33900 ft | 441 kts | 217° |
| 2026-04-21 17:48 | -5.75121 | -33.58806 | 33893 ft | 440 kts | 217° |
| 2026-04-21 17:48 | -5.79997 | -33.62533 | 33896 ft | 440 kts | 217° |
| 2026-04-21 17:49 | -5.84872 | -33.66259 | 33903 ft | 440 kts | 217° |
| 2026-04-21 17:49 | -5.89747 | -33.69986 | 33900 ft | 439 kts | 217° |
| 2026-04-21 17:50 | -5.94595 | -33.73693 | 33900 ft | 438 kts | 217° |
| 2026-04-21 17:50 | -5.99445 | -33.77402 | 33897 ft | 438 kts | 217° |
| 2026-04-21 17:51 | -6.04281 | -33.81103 | 33899 ft | 436 kts | 218° |
| 2026-04-21 17:51 | -6.09103 | -33.84793 | 33902 ft | 436 kts | 218° |
| 2026-04-21 17:52 | -6.13897 | -33.88461 | 33898 ft | 436 kts | 218° |
| 2026-04-21 17:52 | -6.18723 | -33.92156 | 33901 ft | 436 kts | 218° |
| 2026-04-21 17:53 | -6.23550 | -33.95852 | 33898 ft | 436 kts | 218° |
| 2026-04-21 17:53 | -6.28376 | -33.99548 | 33894 ft | 436 kts | 218° |
| 2026-04-21 17:54 | -6.33200 | -34.03241 | 33893 ft | 434 kts | 218° |
| 2026-04-21 17:54 | -6.37999 | -34.06920 | 33891 ft | 434 kts | 218° |
| 2026-04-21 17:55 | -6.42800 | -34.10601 | 33896 ft | 434 kts | 218° |
| 2026-04-21 17:55 | -6.47605 | -34.14285 | 33897 ft | 434 kts | 218° |
| 2026-04-21 17:56 | -6.52408 | -34.17969 | 33898 ft | 434 kts | 218° |
| 2026-04-21 17:56 | -6.57220 | -34.21660 | 33427 ft | 434 kts | 218° |
| 2026-04-21 17:57 | -6.59608 | -34.23491 | 33078 ft | 433 kts | 218° |
| 2026-04-21 17:57 | -6.62021 | -34.25343 | 32436 ft | 437 kts | 218° |
| 2026-04-21 17:57 | -6.64441 | -34.27201 | 31841 ft | 438 kts | 218° |
| 2026-04-21 17:57 | -6.66867 | -34.29064 | 31249 ft | 439 kts | 218° |
| 2026-04-21 17:58 | -6.69265 | -34.30904 | 30672 ft | 440 kts | 218° |
| 2026-04-21 17:58 | -6.71702 | -34.32776 | 30089 ft | 441 kts | 218° |
| 2026-04-21 17:58 | -6.74147 | -34.34653 | 29468 ft | 442 kts | 218° |
| 2026-04-21 17:58 | -6.76584 | -34.36526 | 28913 ft | 441 kts | 218° |
| 2026-04-21 17:59 | -6.79028 | -34.38403 | 28323 ft | 442 kts | 218° |
| 2026-04-21 17:59 | -6.81468 | -34.40277 | 27737 ft | 440 kts | 218° |
| 2026-04-21 17:59 | -6.83886 | -34.42135 | 27159 ft | 436 kts | 218° |
| 2026-04-21 17:59 | -6.86286 | -34.43978 | 26582 ft | 431 kts | 218° |
| 2026-04-21 18:00 | -6.88659 | -34.45803 | 26012 ft | 427 kts | 218° |
| 2026-04-21 18:00 | -6.91008 | -34.47607 | 25447 ft | 423 kts | 218° |
| 2026-04-21 18:00 | -6.93331 | -34.49393 | 24886 ft | 419 kts | 218° |
| 2026-04-21 18:00 | -6.95638 | -34.51167 | 24337 ft | 415 kts | 217° |
| 2026-04-21 18:01 | -6.97921 | -34.52922 | 23785 ft | 411 kts | 217° |
| 2026-04-21 18:01 | -7.00185 | -34.54662 | 23193 ft | 407 kts | 217° |
| 2026-04-21 18:01 | -7.02416 | -34.56378 | 22699 ft | 400 kts | 217° |
| 2026-04-21 18:01 | -7.04616 | -34.58069 | 22167 ft | 395 kts | 217° |
| 2026-04-21 18:02 | -7.06054 | -34.59176 | 21822 ft | 392 kts | 217° |
| 2026-04-21 18:02 | -7.08930 | -34.61389 | 21221 ft | 385 kts | 216° |
| 2026-04-21 18:02 | -7.11023 | -34.62998 | 20720 ft | 384 kts | 217° |
| 2026-04-21 18:02 | -7.13144 | -34.64628 | 20214 ft | 382 kts | 216° |
| 2026-04-21 18:03 | -7.15246 | -34.66247 | 19707 ft | 379 kts | 215° |
| 2026-04-21 18:03 | -7.17337 | -34.67854 | 19206 ft | 376 kts | 216° |
| 2026-04-21 18:03 | -7.19407 | -34.69445 | 18708 ft | 373 kts | 216° |
| 2026-04-21 18:03 | -7.21454 | -34.71023 | 18213 ft | 369 kts | 215° |
| 2026-04-21 18:04 | -7.23476 | -34.72584 | 17704 ft | 364 kts | 215° |
| 2026-04-21 18:04 | -7.25467 | -34.74128 | 17240 ft | 359 kts | 215° |
| 2026-04-21 18:04 | -7.27438 | -34.75655 | 16769 ft | 356 kts | 216° |
| 2026-04-21 18:04 | -7.29396 | -34.77173 | 16299 ft | 355 kts | 215° |
| 2026-04-21 18:05 | -7.31348 | -34.78685 | 15825 ft | 353 kts | 215° |
| 2026-04-21 18:05 | -7.33293 | -34.80189 | 15363 ft | 351 kts | 215° |
| 2026-04-21 18:05 | -7.35225 | -34.81689 | 14894 ft | 349 kts | 216° |
| 2026-04-21 18:05 | -7.37141 | -34.83173 | 14436 ft | 345 kts | 216° |
| 2026-04-21 18:06 | -7.39035 | -34.84641 | 13981 ft | 341 kts | 215° |
| 2026-04-21 18:06 | -7.40909 | -34.86093 | 13497 ft | 339 kts | 215° |
| 2026-04-21 18:06 | -7.42759 | -34.87529 | 13068 ft | 333 kts | 216° |
| 2026-04-21 18:06 | -7.44578 | -34.88942 | 12629 ft | 328 kts | 215° |
| 2026-04-21 18:07 | -7.46368 | -34.90333 | 12195 ft | 323 kts | 216° |
| 2026-04-21 18:07 | -7.48132 | -34.91704 | 11768 ft | 318 kts | 216° |
| 2026-04-21 18:07 | -7.49870 | -34.93053 | 11358 ft | 313 kts | 216° |
| 2026-04-21 18:07 | -7.51586 | -34.94384 | 10946 ft | 310 kts | 216° |
| 2026-04-21 18:08 | -7.53261 | -34.95685 | 10542 ft | 306 kts | 216° |
| 2026-04-21 18:08 | -7.54935 | -34.96985 | 10147 ft | 303 kts | 216° |
| 2026-04-21 18:08 | -7.56594 | -34.98272 | 9774 ft | 299 kts | 216° |
| 2026-04-21 18:08 | -7.58230 | -34.99544 | 9389 ft | 294 kts | 216° |
| 2026-04-21 18:09 | -7.59838 | -35.00792 | 9065 ft | 289 kts | 216° |
| 2026-04-21 18:09 | -7.61422 | -35.02025 | 8714 ft | 286 kts | 216° |
| 2026-04-21 18:09 | -7.62484 | -35.02849 | 8486 ft | 284 kts | 216° |
| 2026-04-21 18:09 | -7.64545 | -35.04450 | 8050 ft | 280 kts | 215° |
| 2026-04-21 18:10 | -7.66082 | -35.05645 | 7693 ft | 278 kts | 215° |
| 2026-04-21 18:10 | -7.67744 | -35.06581 | 7309 ft | 272 kts | 193° |
| 2026-04-21 18:10 | -7.69582 | -35.06541 | 7000 ft | 264 kts | 162° |
| 2026-04-21 18:10 | -7.71291 | -35.05920 | 6710 ft | 260 kts | 159° |
| 2026-04-21 18:11 | -7.73001 | -35.05307 | 6329 ft | 261 kts | 160° |
| 2026-04-21 18:11 | -7.74690 | -35.04732 | 5905 ft | 252 kts | 161° |
| 2026-04-21 18:11 | -7.76370 | -35.04266 | 5579 ft | 250 kts | 167° |
| 2026-04-21 18:11 | -7.78042 | -35.03823 | 5244 ft | 247 kts | 161° |
| 2026-04-21 18:12 | -7.79651 | -35.03237 | 4947 ft | 245 kts | 160° |
| 2026-04-21 18:12 | -7.81270 | -35.02711 | 4638 ft | 244 kts | 162° |
| 2026-04-21 18:12 | -7.82896 | -35.02199 | 4324 ft | 245 kts | 161° |
| 2026-04-21 18:12 | -7.84516 | -35.01643 | 4019 ft | 246 kts | 160° |
| 2026-04-21 18:13 | -7.85586 | -35.01284 | 3831 ft | 244 kts | 162° |
| 2026-04-21 18:13 | -7.87193 | -35.00772 | 3545 ft | 240 kts | 161° |
| 2026-04-21 18:13 | -7.88761 | -35.00246 | 3300 ft | 235 kts | 161° |
| 2026-04-21 18:13 | -7.90304 | -34.99734 | 3097 ft | 231 kts | 160° |
| 2026-04-21 18:14 | -7.93236 | -34.98758 | 2853 ft | 205 kts | 161° |
| 2026-04-21 18:14 | -7.94523 | -34.98323 | 2720 ft | 187 kts | 161° |
| 2026-04-21 18:14 | -7.95729 | -34.97935 | 2610 ft | 178 kts | 161° |
| 2026-04-21 18:15 | -7.96901 | -34.97546 | 2525 ft | 176 kts | 161° |
| 2026-04-21 18:15 | -7.98075 | -34.97158 | 2384 ft | 177 kts | 160° |
| 2026-04-21 18:15 | -7.99231 | -34.96771 | 2258 ft | 173 kts | 161° |
| 2026-04-21 18:15 | -8.00370 | -34.96394 | 2145 ft | 171 kts | 161° |
| 2026-04-21 18:16 | -8.01509 | -34.96017 | 2018 ft | 175 kts | 160° |
| 2026-04-21 18:16 | -8.02658 | -34.95633 | 1783 ft | 169 kts | 161° |
| 2026-04-21 18:16 | -8.03732 | -34.95277 | 1565 ft | 157 kts | 162° |
| 2026-04-21 18:16 | -8.04761 | -34.94937 | 1362 ft | 155 kts | 161° |
| 2026-04-21 18:17 | -8.05780 | -34.94597 | 1178 ft | 152 kts | 161° |
| 2026-04-21 18:17 | -8.06773 | -34.94269 | 977 ft | 151 kts | 161° |
| 2026-04-21 18:17 | -8.07739 | -34.93947 | 782 ft | 140 kts | 160° |
| 2026-04-21 18:17 | -8.08624 | -34.93654 | 621 ft | 129 kts | 159° |
| 2026-04-21 18:18 | -8.09466 | -34.93376 | 465 ft | 126 kts | 157° |
| 2026-04-21 18:18 | -8.10284 | -34.93102 | 298 ft | 121 kts | 156° |
| 2026-04-21 18:18 | -8.11077 | -34.92834 | 141 ft | 121 kts | 159° |
| 2026-04-21 18:18 | -8.11868 | -34.92565 | 35 ft | 113 kts | 160° |
| 2026-04-21 18:19 | -8.12459 | -34.92377 | 36 ft | 67 kts | 162° |
| 2026-04-21 18:19 | -8.12854 | -34.92245 | 39 ft | 56 kts | 162° |
| 2026-04-21 18:19 | -8.13145 | -34.92149 | 35 ft | 27 kts | 159° |
| 2026-04-21 18:19 | -8.13262 | -34.92048 | 35 ft | 17 kts | 129° |
| 2026-04-21 18:20 | -8.13337 | -34.91963 | 33 ft | 16 kts | 133° |
| 2026-04-21 18:20 | -8.13420 | -34.91908 | 36 ft | 14 kts | 161° |
| 2026-04-21 18:20 | -8.13502 | -34.91880 | 36 ft | 6 kts | 162° |
| 2026-04-21 18:20 | -8.13513 | -34.91867 | 36 ft | 2 kts | 97° |
| 2026-04-21 18:21 | -8.13510 | -34.91848 | 36 ft | 4 kts | 77° |
| 2026-04-21 18:21 | -8.13502 | -34.91823 | 36 ft | 3 kts | 70° |
| 2026-04-21 18:21 | -8.13498 | -34.91811 | 36 ft | 0 kts | 71° |